Terminal Aerodrome Forecast
Issued by NWS Sterling, VA

Current Version | Previous Version | Graphics & Text | Print | Product List | Glossary On
Versions: 1 2 3 4 5 6 7 8 9 10 11 12 13 14 15 16 17
000
FTUS41 KLWX 231100
TAFMRB
TAF
KMRB 231133Z 2312/2412 VRB03KT P6SM BKN080
     FM232000 15007KT P6SM BKN150
     FM240100 14008KT P6SM -RA OVC050
     FM240200 13008KT P6SM -RA OVC025
     FM240300 13008KT P6SM -RA OVC015
     FM240500 14011KT 6SM -RA OVC008 WS020/15045KT
     FM240800 17010KT 3SM -RA OVC008
     FM241100 18009KT P6SM BKN008=

USA.gov is the U.S. government's official web portal to all federal, state and local government web resources and services.